sensor_id;sensor_type;location;lat;lon;timestamp;P1;durP1;ratioP1;P2;durP2;ratioP2
56629;SDS011;42502;40.732;-74.254;2023-06-05T00:01:17;5.45;;;1.50;;
56629;SDS011;42502;40.732;-74.254;2023-06-05T00:03:24;3.72;;;1.25;;
56629;SDS011;42502;40.732;-74.254;2023-06-05T00:05:27;3.13;;;1.25;;
56629;SDS011;42502;40.732;-74.254;2023-06-05T00:07:31;4.75;;;1.13;;
56629;SDS011;42502;40.732;-74.254;2023-06-05T00:09:35;4.47;;;1.10;;
56629;SDS011;42502;40.732;-74.254;2023-06-05T00:11:36;1.50;;;1.00;;
56629;SDS011;42502;40.732;-74.254;2023-06-05T00:13:37;1.73;;;1.00;;
56629;SDS011;42502;40.732;-74.254;2023-06-05T00:15:37;2.35;;;1.00;;
56629;SDS011;42502;40.732;-74.254;2023-06-05T00:17:38;2.80;;;0.80;;
56629;SDS011;42502;40.732;-74.254;2023-06-05T00:19:39;4.03;;;0.80;;
56629;SDS011;42502;40.732;-74.254;2023-06-05T00:21:40;3.70;;;1.00;;
56629;SDS011;42502;40.732;-74.254;2023-06-05T00:23:41;4.32;;;1.33;;
56629;SDS011;42502;40.732;-74.254;2023-06-05T00:25:42;1.48;;;0.85;;
56629;SDS011;42502;40.732;-74.254;2023-06-05T00:27:42;2.42;;;0.75;;
56629;SDS011;42502;40.732;-74.254;2023-06-05T00:29:43;2.15;;;0.80;;
56629;SDS011;42502;40.732;-74.254;2023-06-05T00:31:44;1.70;;;0.73;;
56629;SDS011;42502;40.732;-74.254;2023-06-05T00:33:46;1.35;;;0.77;;
56629;SDS011;42502;40.732;-74.254;2023-06-05T00:35:47;3.17;;;0.90;;
56629;SDS011;42502;40.732;-74.254;2023-06-05T00:37:47;1.20;;;0.80;;
56629;SDS011;42502;40.732;-74.254;2023-06-05T00:39:48;2.30;;;0.90;;
56629;SDS011;42502;40.732;-74.254;2023-06-05T00:41:49;2.38;;;0.80;;
56629;SDS011;42502;40.732;-74.254;2023-06-05T00:43:53;2.40;;;0.90;;
56629;SDS011;42502;40.732;-74.254;2023-06-05T00:45:57;1.35;;;0.70;;
56629;SDS011;42502;40.732;-74.254;2023-06-05T00:48:03;1.95;;;0.77;;
56629;SDS011;42502;40.732;-74.254;2023-06-05T00:50:04;3.75;;;0.80;;
56629;SDS011;42502;40.732;-74.254;2023-06-05T00:52:07;1.73;;;0.77;;
56629;SDS011;42502;40.732;-74.254;2023-06-05T00:54:08;2.08;;;0.70;;
56629;SDS011;42502;40.732;-74.254;2023-06-05T00:56:10;1.85;;;0.70;;
56629;SDS011;42502;40.732;-74.254;2023-06-05T00:58:11;0.88;;;0.70;;
56629;SDS011;42502;40.732;-74.254;2023-06-05T01:00:12;0.82;;;0.68;;
56629;SDS011;42502;40.732;-74.254;2023-06-05T01:02:14;1.10;;;0.90;;
56629;SDS011;42502;40.732;-74.254;2023-06-05T01:04:15;0.73;;;0.60;;
56629;SDS011;42502;40.732;-74.254;2023-06-05T01:06:16;1.65;;;0.60;;
56629;SDS011;42502;40.732;-74.254;2023-06-05T01:08:17;0.90;;;0.50;;
56629;SDS011;42502;40.732;-74.254;2023-06-05T01:10:28;1.40;;;0.70;;
56629;SDS011;42502;40.732;-74.254;2023-06-05T01:14:35;1.00;;;0.70;;
56629;SDS011;42502;40.732;-74.254;2023-06-05T01:16:38;5.00;;;0.55;;
56629;SDS011;42502;40.732;-74.254;2023-06-05T01:18:40;3.53;;;0.60;;
56629;SDS011;42502;40.732;-74.254;2023-06-05T01:20:46;0.82;;;0.60;;
56629;SDS011;42502;40.732;-74.254;2023-06-05T01:22:49;1.60;;;0.50;;
56629;SDS011;42502;40.732;-74.254;2023-06-05T01:24:52;2.17;;;0.50;;
56629;SDS011;42502;40.732;-74.254;2023-06-05T01:27:13;3.15;;;0.60;;
56629;SDS011;42502;40.732;-74.254;2023-06-05T01:29:21;1.70;;;0.60;;
56629;SDS011;42502;40.732;-74.254;2023-06-05T01:31:30;1.17;;;0.55;;
56629;SDS011;42502;40.732;-74.254;2023-06-05T01:33:37;1.45;;;0.60;;
56629;SDS011;42502;40.732;-74.254;2023-06-05T01:35:44;1.38;;;0.50;;
56629;SDS011;42502;40.732;-74.254;2023-06-05T01:37:51;1.10;;;0.70;;
56629;SDS011;42502;40.732;-74.254;2023-06-05T01:39:53;1.52;;;0.60;;
56629;SDS011;42502;40.732;-74.254;2023-06-05T01:41:56;0.80;;;0.63;;
56629;SDS011;42502;40.732;-74.254;2023-06-05T01:43:58;3.10;;;0.73;;
56629;SDS011;42502;40.732;-74.254;2023-06-05T01:46:00;2.10;;;0.60;;
56629;SDS011;42502;40.732;-74.254;2023-06-05T01:48:01;1.30;;;0.70;;
56629;SDS011;42502;40.732;-74.254;2023-06-05T01:50:04;0.85;;;0.70;;
56629;SDS011;42502;40.732;-74.254;2023-06-05T01:52:06;1.90;;;0.70;;
56629;SDS011;42502;40.732;-74.254;2023-06-05T01:54:07;2.58;;;0.70;;
56629;SDS011;42502;40.732;-74.254;2023-06-05T01:56:08;1.15;;;0.65;;
56629;SDS011;42502;40.732;-74.254;2023-06-05T01:58:10;1.00;;;0.63;;
56629;SDS011;42502;40.732;-74.254;2023-06-05T02:00:12;0.70;;;0.60;;
56629;SDS011;42502;40.732;-74.254;2023-06-05T02:02:13;3.88;;;0.70;;
56629;SDS011;42502;40.732;-74.254;2023-06-05T02:04:14;2.33;;;0.70;;
56629;SDS011;42502;40.732;-74.254;2023-06-05T02:06:22;1.25;;;0.70;;
56629;SDS011;42502;40.732;-74.254;2023-06-05T02:08:25;2.25;;;0.80;;
56629;SDS011;42502;40.732;-74.254;2023-06-05T02:10:28;2.33;;;0.70;;
56629;SDS011;42502;40.732;-74.254;2023-06-05T02:12:29;2.42;;;0.70;;
56629;SDS011;42502;40.732;-74.254;2023-06-05T02:14:33;3.72;;;0.70;;
56629;SDS011;42502;40.732;-74.254;2023-06-05T02:16:37;2.30;;;0.70;;
56629;SDS011;42502;40.732;-74.254;2023-06-05T02:18:38;4.00;;;1.27;;
56629;SDS011;42502;40.732;-74.254;2023-06-05T02:20:40;1.77;;;0.90;;
56629;SDS011;42502;40.732;-74.254;2023-06-05T02:22:44;1.77;;;0.90;;
56629;SDS011;42502;40.732;-74.254;2023-06-05T02:24:45;1.70;;;0.80;;
56629;SDS011;42502;40.732;-74.254;2023-06-05T02:26:46;2.67;;;0.70;;
56629;SDS011;42502;40.732;-74.254;2023-06-05T02:28:49;1.13;;;0.68;;
56629;SDS011;42502;40.732;-74.254;2023-06-05T02:30:51;1.58;;;0.60;;
56629;SDS011;42502;40.732;-74.254;2023-06-05T02:32:53;2.10;;;0.73;;
56629;SDS011;42502;40.732;-74.254;2023-06-05T02:34:56;1.55;;;0.70;;
56629;SDS011;42502;40.732;-74.254;2023-06-05T02:36:58;2.95;;;0.75;;
56629;SDS011;42502;40.732;-74.254;2023-06-05T02:38:59;3.03;;;0.75;;
56629;SDS011;42502;40.732;-74.254;2023-06-05T02:41:01;4.25;;;0.85;;
56629;SDS011;42502;40.732;-74.254;2023-06-05T02:43:02;2.90;;;0.70;;
56629;SDS011;42502;40.732;-74.254;2023-06-05T02:45:05;1.98;;;0.70;;
56629;SDS011;42502;40.732;-74.254;2023-06-05T02:47:10;1.77;;;0.90;;
56629;SDS011;42502;40.732;-74.254;2023-06-05T02:49:11;1.40;;;0.73;;
56629;SDS011;42502;40.732;-74.254;2023-06-05T02:51:11;2.05;;;0.70;;
56629;SDS011;42502;40.732;-74.254;2023-06-05T02:53:12;3.22;;;0.70;;
56629;SDS011;42502;40.732;-74.254;2023-06-05T02:55:15;1.35;;;0.60;;
56629;SDS011;42502;40.732;-74.254;2023-06-05T02:57:17;1.35;;;0.68;;
56629;SDS011;42502;40.732;-74.254;2023-06-05T02:59:18;1.90;;;0.70;;
56629;SDS011;42502;40.732;-74.254;2023-06-05T03:01:22;1.10;;;0.68;;
56629;SDS011;42502;40.732;-74.254;2023-06-05T03:03:25;2.97;;;0.70;;
56629;SDS011;42502;40.732;-74.254;2023-06-05T03:05:27;2.40;;;0.70;;
56629;SDS011;42502;40.732;-74.254;2023-06-05T03:07:30;1.33;;;0.77;;
56629;SDS011;42502;40.732;-74.254;2023-06-05T03:09:33;1.48;;;0.70;;
56629;SDS011;42502;40.732;-74.254;2023-06-05T03:11:34;1.13;;;0.60;;
56629;SDS011;42502;40.732;-74.254;2023-06-05T03:13:35;1.98;;;0.60;;
56629;SDS011;42502;40.732;-74.254;2023-06-05T03:15:36;1.20;;;0.60;;
56629;SDS011;42502;40.732;-74.254;2023-06-05T03:17:37;2.88;;;0.60;;
56629;SDS011;42502;40.732;-74.254;2023-06-05T03:19:37;2.53;;;0.70;;
56629;SDS011;42502;40.732;-74.254;2023-06-05T03:21:38;2.25;;;0.50;;
56629;SDS011;42502;40.732;-74.254;2023-06-05T03:23:43;1.35;;;0.63;;
56629;SDS011;42502;40.732;-74.254;2023-06-05T03:25:43;1.17;;;0.60;;
56629;SDS011;42502;40.732;-74.254;2023-06-05T03:27:44;0.93;;;0.70;;
56629;SDS011;42502;40.732;-74.254;2023-06-05T03:29:46;1.08;;;0.63;;
56629;SDS011;42502;40.732;-74.254;2023-06-05T03:31:47;8.30;;;0.80;;
56629;SDS011;42502;40.732;-74.254;2023-06-05T03:33:48;1.40;;;0.70;;
56629;SDS011;42502;40.732;-74.254;2023-06-05T03:35:48;1.63;;;0.68;;
56629;SDS011;42502;40.732;-74.254;2023-06-05T03:37:49;1.15;;;0.60;;
56629;SDS011;42502;40.732;-74.254;2023-06-05T03:39:50;1.67;;;0.60;;
56629;SDS011;42502;40.732;-74.254;2023-06-05T03:41:51;1.50;;;0.70;;
56629;SDS011;42502;40.732;-74.254;2023-06-05T03:43:55;1.27;;;0.70;;
56629;SDS011;42502;40.732;-74.254;2023-06-05T03:46:03;1.15;;;0.60;;
56629;SDS011;42502;40.732;-74.254;2023-06-05T03:48:04;0.50;;;0.50;;
56629;SDS011;42502;40.732;-74.254;2023-06-05T03:50:11;1.05;;;0.60;;
56629;SDS011;42502;40.732;-74.254;2023-06-05T03:52:13;2.15;;;0.70;;
56629;SDS011;42502;40.732;-74.254;2023-06-05T03:54:15;2.40;;;0.65;;
56629;SDS011;42502;40.732;-74.254;2023-06-05T03:56:16;1.85;;;0.77;;
56629;SDS011;42502;40.732;-74.254;2023-06-05T03:58:18;1.13;;;0.60;;
56629;SDS011;42502;40.732;-74.254;2023-06-05T04:00:22;0.88;;;0.60;;
56629;SDS011;42502;40.732;-74.254;2023-06-05T04:02:23;1.20;;;0.50;;
56629;SDS011;42502;40.732;-74.254;2023-06-05T04:04:23;1.75;;;0.52;;
56629;SDS011;42502;40.732;-74.254;2023-06-05T04:06:27;1.25;;;0.60;;
56629;SDS011;42502;40.732;-74.254;2023-06-05T04:08:28;0.80;;;0.60;;
56629;SDS011;42502;40.732;-74.254;2023-06-05T04:10:28;0.70;;;0.57;;
56629;SDS011;42502;40.732;-74.254;2023-06-05T04:12:29;2.22;;;0.60;;
56629;SDS011;42502;40.732;-74.254;2023-06-05T04:14:30;2.13;;;0.70;;
56629;SDS011;42502;40.732;-74.254;2023-06-05T04:16:31;1.05;;;0.52;;
56629;SDS011;42502;40.732;-74.254;2023-06-05T04:18:34;0.95;;;0.65;;
56629;SDS011;42502;40.732;-74.254;2023-06-05T04:20:35;1.63;;;0.60;;
56629;SDS011;42502;40.732;-74.254;2023-06-05T04:22:36;0.50;;;0.50;;
56629;SDS011;42502;40.732;-74.254;2023-06-05T04:24:37;0.90;;;0.45;;
56629;SDS011;42502;40.732;-74.254;2023-06-05T04:26:40;1.33;;;0.60;;
56629;SDS011;42502;40.732;-74.254;2023-06-05T04:28:41;1.58;;;0.60;;
56629;SDS011;42502;40.732;-74.254;2023-06-05T04:30:43;0.80;;;0.60;;
56629;SDS011;42502;40.732;-74.254;2023-06-05T04:32:45;0.60;;;0.50;;
56629;SDS011;42502;40.732;-74.254;2023-06-05T04:34:54;0.68;;;0.50;;
56629;SDS011;42502;40.732;-74.254;2023-06-05T04:36:55;0.75;;;0.50;;
56629;SDS011;42502;40.732;-74.254;2023-06-05T04:38:56;0.80;;;0.60;;
56629;SDS011;42502;40.732;-74.254;2023-06-05T04:40:57;1.40;;;0.60;;
56629;SDS011;42502;40.732;-74.254;2023-06-05T04:42:57;1.40;;;0.60;;
56629;SDS011;42502;40.732;-74.254;2023-06-05T04:44:59;0.50;;;0.50;;
56629;SDS011;42502;40.732;-74.254;2023-06-05T04:47:03;0.80;;;0.68;;
56629;SDS011;42502;40.732;-74.254;2023-06-05T04:49:06;0.65;;;0.60;;
56629;SDS011;42502;40.732;-74.254;2023-06-05T04:51:07;1.52;;;0.60;;
56629;SDS011;42502;40.732;-74.254;2023-06-05T04:53:08;1.00;;;0.50;;
56629;SDS011;42502;40.732;-74.254;2023-06-05T04:55:09;2.72;;;0.40;;
56629;SDS011;42502;40.732;-74.254;2023-06-05T04:57:09;0.90;;;0.55;;
56629;SDS011;42502;40.732;-74.254;2023-06-05T04:59:11;0.60;;;0.50;;
56629;SDS011;42502;40.732;-74.254;2023-06-05T05:01:12;1.27;;;0.60;;
56629;SDS011;42502;40.732;-74.254;2023-06-05T05:03:16;0.68;;;0.50;;
56629;SDS011;42502;40.732;-74.254;2023-06-05T05:05:20;0.70;;;0.50;;
56629;SDS011;42502;40.732;-74.254;2023-06-05T05:07:21;0.55;;;0.52;;
56629;SDS011;42502;40.732;-74.254;2023-06-05T05:09:22;1.60;;;0.50;;
56629;SDS011;42502;40.732;-74.254;2023-06-05T05:11:23;0.50;;;0.40;;
56629;SDS011;42502;40.732;-74.254;2023-06-05T05:13:23;0.60;;;0.50;;
56629;SDS011;42502;40.732;-74.254;2023-06-05T05:15:24;1.00;;;0.47;;
56629;SDS011;42502;40.732;-74.254;2023-06-05T05:17:25;0.60;;;0.40;;
56629;SDS011;42502;40.732;-74.254;2023-06-05T05:19:26;0.90;;;0.50;;
56629;SDS011;42502;40.732;-74.254;2023-06-05T05:21:27;2.22;;;0.50;;
56629;SDS011;42502;40.732;-74.254;2023-06-05T05:23:28;1.00;;;0.50;;
56629;SDS011;42502;40.732;-74.254;2023-06-05T05:25:29;0.82;;;0.52;;
56629;SDS011;42502;40.732;-74.254;2023-06-05T05:27:32;0.45;;;0.40;;
56629;SDS011;42502;40.732;-74.254;2023-06-05T05:29:33;1.13;;;0.50;;
56629;SDS011;42502;40.732;-74.254;2023-06-05T05:31:37;2.17;;;0.60;;
56629;SDS011;42502;40.732;-74.254;2023-06-05T05:33:38;0.47;;;0.47;;
56629;SDS011;42502;40.732;-74.254;2023-06-05T05:35:38;1.05;;;0.60;;
56629;SDS011;42502;40.732;-74.254;2023-06-05T05:37:39;0.50;;;0.50;;
56629;SDS011;42502;40.732;-74.254;2023-06-05T05:39:40;0.55;;;0.50;;
56629;SDS011;42502;40.732;-74.254;2023-06-05T05:41:41;0.77;;;0.50;;
56629;SDS011;42502;40.732;-74.254;2023-06-05T05:43:41;1.85;;;0.50;;
56629;SDS011;42502;40.732;-74.254;2023-06-05T05:45:42;0.60;;;0.47;;
56629;SDS011;42502;40.732;-74.254;2023-06-05T05:47:43;0.45;;;0.40;;
56629;SDS011;42502;40.732;-74.254;2023-06-05T05:49:45;0.95;;;0.50;;
56629;SDS011;42502;40.732;-74.254;2023-06-05T05:51:46;0.50;;;0.43;;
56629;SDS011;42502;40.732;-74.254;2023-06-05T05:53:47;0.52;;;0.45;;
56629;SDS011;42502;40.732;-74.254;2023-06-05T05:55:47;1.67;;;0.40;;
56629;SDS011;42502;40.732;-74.254;2023-06-05T05:57:48;0.98;;;0.68;;
56629;SDS011;42502;40.732;-74.254;2023-06-05T05:59:49;1.27;;;0.47;;
56629;SDS011;42502;40.732;-74.254;2023-06-05T06:01:50;0.77;;;0.50;;
56629;SDS011;42502;40.732;-74.254;2023-06-05T06:03:51;0.55;;;0.40;;
56629;SDS011;42502;40.732;-74.254;2023-06-05T06:05:54;0.95;;;0.40;;
56629;SDS011;42502;40.732;-74.254;2023-06-05T06:07:56;0.40;;;0.40;;
56629;SDS011;42502;40.732;-74.254;2023-06-05T06:09:58;0.88;;;0.60;;
56629;SDS011;42502;40.732;-74.254;2023-06-05T06:12:02;1.52;;;0.50;;
56629;SDS011;42502;40.732;-74.254;2023-06-05T06:14:06;1.10;;;0.45;;
56629;SDS011;42502;40.732;-74.254;2023-06-05T06:16:06;0.95;;;0.57;;
56629;SDS011;42502;40.732;-74.254;2023-06-05T06:18:07;0.70;;;0.40;;
56629;SDS011;42502;40.732;-74.254;2023-06-05T06:20:08;0.60;;;0.50;;
56629;SDS011;42502;40.732;-74.254;2023-06-05T06:22:12;0.73;;;0.30;;
56629;SDS011;42502;40.732;-74.254;2023-06-05T06:24:13;1.05;;;0.50;;
56629;SDS011;42502;40.732;-74.254;2023-06-05T06:26:16;1.10;;;0.40;;
56629;SDS011;42502;40.732;-74.254;2023-06-05T06:28:17;0.70;;;0.50;;
56629;SDS011;42502;40.732;-74.254;2023-06-05T06:30:19;0.60;;;0.50;;
56629;SDS011;42502;40.732;-74.254;2023-06-05T06:32:20;0.50;;;0.40;;
56629;SDS011;42502;40.732;-74.254;2023-06-05T06:34:22;0.50;;;0.40;;
56629;SDS011;42502;40.732;-74.254;2023-06-05T06:36:24;1.88;;;0.50;;
56629;SDS011;42502;40.732;-74.254;2023-06-05T06:38:26;1.30;;;0.50;;
56629;SDS011;42502;40.732;-74.254;2023-06-05T06:40:30;0.40;;;0.40;;
56629;SDS011;42502;40.732;-74.254;2023-06-05T06:42:31;0.70;;;0.40;;
56629;SDS011;42502;40.732;-74.254;2023-06-05T06:44:32;0.90;;;0.50;;
56629;SDS011;42502;40.732;-74.254;2023-06-05T06:46:33;0.70;;;0.40;;
56629;SDS011;42502;40.732;-74.254;2023-06-05T06:48:34;1.70;;;0.50;;
56629;SDS011;42502;40.732;-74.254;2023-06-05T06:50:35;0.77;;;0.50;;
56629;SDS011;42502;40.732;-74.254;2023-06-05T06:52:35;0.70;;;0.32;;
56629;SDS011;42502;40.732;-74.254;2023-06-05T06:54:36;0.43;;;0.40;;
56629;SDS011;42502;40.732;-74.254;2023-06-05T06:56:38;1.15;;;0.45;;
56629;SDS011;42502;40.732;-74.254;2023-06-05T06:58:38;1.40;;;0.50;;
56629;SDS011;42502;40.732;-74.254;2023-06-05T07:00:39;0.65;;;0.52;;
56629;SDS011;42502;40.732;-74.254;2023-06-05T07:02:41;0.60;;;0.40;;
56629;SDS011;42502;40.732;-74.254;2023-06-05T07:04:42;2.03;;;0.40;;
56629;SDS011;42502;40.732;-74.254;2023-06-05T07:06:43;0.63;;;0.40;;
56629;SDS011;42502;40.732;-74.254;2023-06-05T07:08:44;1.85;;;0.40;;
56629;SDS011;42502;40.732;-74.254;2023-06-05T07:10:46;0.70;;;0.50;;
56629;SDS011;42502;40.732;-74.254;2023-06-05T07:12:46;0.40;;;0.40;;
56629;SDS011;42502;40.732;-74.254;2023-06-05T07:14:47;0.85;;;0.30;;
56629;SDS011;42502;40.732;-74.254;2023-06-05T07:16:48;0.40;;;0.40;;
56629;SDS011;42502;40.732;-74.254;2023-06-05T07:18:56;0.40;;;0.40;;
56629;SDS011;42502;40.732;-74.254;2023-06-05T07:20:57;0.57;;;0.40;;
56629;SDS011;42502;40.732;-74.254;2023-06-05T07:22:58;1.95;;;0.43;;
56629;SDS011;42502;40.732;-74.254;2023-06-05T07:25:02;0.63;;;0.43;;
56629;SDS011;42502;40.732;-74.254;2023-06-05T07:27:05;0.30;;;0.30;;
56629;SDS011;42502;40.732;-74.254;2023-06-05T07:29:05;0.40;;;0.40;;
56629;SDS011;42502;40.732;-74.254;2023-06-05T07:31:06;0.30;;;0.30;;
56629;SDS011;42502;40.732;-74.254;2023-06-05T07:33:07;0.70;;;0.30;;
56629;SDS011;42502;40.732;-74.254;2023-06-05T07:35:10;0.57;;;0.38;;
56629;SDS011;42502;40.732;-74.254;2023-06-05T07:37:12;0.40;;;0.40;;
56629;SDS011;42502;40.732;-74.254;2023-06-05T07:39:13;1.85;;;0.30;;
56629;SDS011;42502;40.732;-74.254;2023-06-05T07:41:14;1.63;;;0.30;;
56629;SDS011;42502;40.732;-74.254;2023-06-05T07:43:18;0.55;;;0.35;;
56629;SDS011;42502;40.732;-74.254;2023-06-05T07:45:19;1.88;;;0.40;;
56629;SDS011;42502;40.732;-74.254;2023-06-05T07:47:20;0.50;;;0.30;;
56629;SDS011;42502;40.732;-74.254;2023-06-05T07:49:21;0.40;;;0.30;;
56629;SDS011;42502;40.732;-74.254;2023-06-05T07:51:24;0.60;;;0.40;;
56629;SDS011;42502;40.732;-74.254;2023-06-05T07:53:25;2.80;;;0.40;;
56629;SDS011;42502;40.732;-74.254;2023-06-05T07:55:26;0.73;;;0.30;;
56629;SDS011;42502;40.732;-74.254;2023-06-05T07:57:30;0.52;;;0.32;;
56629;SDS011;42502;40.732;-74.254;2023-06-05T07:59:30;0.30;;;0.30;;
56629;SDS011;42502;40.732;-74.254;2023-06-05T08:01:33;0.95;;;0.35;;
56629;SDS011;42502;40.732;-74.254;2023-06-05T08:03:36;0.47;;;0.40;;
56629;SDS011;42502;40.732;-74.254;2023-06-05T08:05:38;0.30;;;0.30;;
56629;SDS011;42502;40.732;-74.254;2023-06-05T08:07:39;0.30;;;0.30;;
56629;SDS011;42502;40.732;-74.254;2023-06-05T08:09:40;1.48;;;0.30;;
56629;SDS011;42502;40.732;-74.254;2023-06-05T08:11:41;0.30;;;0.30;;
56629;SDS011;42502;40.732;-74.254;2023-06-05T08:13:42;0.20;;;0.20;;
56629;SDS011;42502;40.732;-74.254;2023-06-05T08:15:43;0.55;;;0.38;;
56629;SDS011;42502;40.732;-74.254;2023-06-05T08:17:44;0.50;;;0.30;;
56629;SDS011;42502;40.732;-74.254;2023-06-05T08:19:45;2.53;;;0.30;;
56629;SDS011;42502;40.732;-74.254;2023-06-05T08:21:45;0.40;;;0.30;;
56629;SDS011;42502;40.732;-74.254;2023-06-05T08:23:46;0.60;;;0.22;;
56629;SDS011;42502;40.732;-74.254;2023-06-05T08:25:47;0.80;;;0.30;;
56629;SDS011;42502;40.732;-74.254;2023-06-05T08:27:48;0.30;;;0.30;;
56629;SDS011;42502;40.732;-74.254;2023-06-05T08:29:49;0.47;;;0.30;;
56629;SDS011;42502;40.732;-74.254;2023-06-05T08:31:51;0.30;;;0.20;;
56629;SDS011;42502;40.732;-74.254;2023-06-05T08:33:52;0.88;;;0.30;;
56629;SDS011;42502;40.732;-74.254;2023-06-05T08:35:52;0.40;;;0.30;;
56629;SDS011;42502;40.732;-74.254;2023-06-05T08:37:53;1.02;;;0.40;;
56629;SDS011;42502;40.732;-74.254;2023-06-05T08:39:54;0.30;;;0.20;;
56629;SDS011;42502;40.732;-74.254;2023-06-05T08:41:58;0.30;;;0.30;;
56629;SDS011;42502;40.732;-74.254;2023-06-05T08:44:01;0.40;;;0.30;;
56629;SDS011;42502;40.732;-74.254;2023-06-05T08:46:02;0.88;;;0.30;;
56629;SDS011;42502;40.732;-74.254;2023-06-05T08:48:05;3.03;;;0.20;;
56629;SDS011;42502;40.732;-74.254;2023-06-05T08:50:12;0.30;;;0.30;;
56629;SDS011;42502;40.732;-74.254;2023-06-05T08:52:13;1.65;;;0.30;;
56629;SDS011;42502;40.732;-74.254;2023-06-05T08:54:15;1.40;;;0.30;;
56629;SDS011;42502;40.732;-74.254;2023-06-05T08:56:16;0.45;;;0.30;;
56629;SDS011;42502;40.732;-74.254;2023-06-05T08:58:18;1.05;;;0.30;;
56629;SDS011;42502;40.732;-74.254;2023-06-05T09:00:19;0.40;;;0.30;;
56629;SDS011;42502;40.732;-74.254;2023-06-05T09:02:22;1.05;;;0.30;;
56629;SDS011;42502;40.732;-74.254;2023-06-05T09:04:23;0.40;;;0.30;;
56629;SDS011;42502;40.732;-74.254;2023-06-05T09:06:25;0.20;;;0.20;;
56629;SDS011;42502;40.732;-74.254;2023-06-05T09:08:30;0.30;;;0.30;;
56629;SDS011;42502;40.732;-74.254;2023-06-05T09:10:33;0.75;;;0.20;;
56629;SDS011;42502;40.732;-74.254;2023-06-05T09:14:57;0.68;;;0.30;;
56629;SDS011;42502;40.732;-74.254;2023-06-05T09:16:58;0.22;;;0.20;;
56629;SDS011;42502;40.732;-74.254;2023-06-05T09:19:01;0.30;;;0.28;;
56629;SDS011;42502;40.732;-74.254;2023-06-05T09:21:11;0.20;;;0.20;;
56629;SDS011;42502;40.732;-74.254;2023-06-05T09:23:25;0.63;;;0.30;;
56629;SDS011;42502;40.732;-74.254;2023-06-05T09:25:48;0.30;;;0.20;;
56629;SDS011;42502;40.732;-74.254;2023-06-05T09:30:19;0.95;;;0.30;;
56629;SDS011;42502;40.732;-74.254;2023-06-05T09:32:20;0.75;;;0.30;;
56629;SDS011;42502;40.732;-74.254;2023-06-05T09:34:25;1.30;;;0.20;;
56629;SDS011;42502;40.732;-74.254;2023-06-05T09:36:26;0.20;;;0.20;;
56629;SDS011;42502;40.732;-74.254;2023-06-05T09:38:27;0.68;;;0.25;;
56629;SDS011;42502;40.732;-74.254;2023-06-05T09:40:37;1.10;;;0.20;;
56629;SDS011;42502;40.732;-74.254;2023-06-05T09:42:38;0.75;;;0.35;;
56629;SDS011;42502;40.732;-74.254;2023-06-05T09:44:41;0.43;;;0.20;;
56629;SDS011;42502;40.732;-74.254;2023-06-05T09:47:01;2.90;;;0.30;;
56629;SDS011;42502;40.732;-74.254;2023-06-05T09:49:08;1.52;;;0.30;;
56629;SDS011;42502;40.732;-74.254;2023-06-05T09:51:15;1.50;;;0.20;;
56629;SDS011;42502;40.732;-74.254;2023-06-05T09:53:16;0.27;;;0.20;;
56629;SDS011;42502;40.732;-74.254;2023-06-05T09:55:23;1.27;;;0.20;;
56629;SDS011;42502;40.732;-74.254;2023-06-05T09:57:28;0.30;;;0.28;;
56629;SDS011;42502;40.732;-74.254;2023-06-05T09:59:33;1.30;;;0.30;;
56629;SDS011;42502;40.732;-74.254;2023-06-05T10:01:35;0.20;;;0.20;;
56629;SDS011;42502;40.732;-74.254;2023-06-05T10:03:36;1.00;;;0.30;;
56629;SDS011;42502;40.732;-74.254;2023-06-05T10:05:40;0.20;;;0.20;;
56629;SDS011;42502;40.732;-74.254;2023-06-05T10:07:44;0.20;;;0.20;;
56629;SDS011;42502;40.732;-74.254;2023-06-05T10:09:46;1.17;;;0.20;;
56629;SDS011;42502;40.732;-74.254;2023-06-05T10:11:50;2.90;;;0.30;;
56629;SDS011;42502;40.732;-74.254;2023-06-05T10:13:51;0.50;;;0.32;;
56629;SDS011;42502;40.732;-74.254;2023-06-05T10:15:52;0.20;;;0.20;;
56629;SDS011;42502;40.732;-74.254;2023-06-05T10:17:57;1.55;;;0.40;;
56629;SDS011;42502;40.732;-74.254;2023-06-05T10:20:05;1.02;;;0.30;;
56629;SDS011;42502;40.732;-74.254;2023-06-05T10:22:06;1.83;;;0.30;;
56629;SDS011;42502;40.732;-74.254;2023-06-05T10:26:33;0.73;;;0.20;;
56629;SDS011;42502;40.732;-74.254;2023-06-05T10:29:01;1.50;;;0.30;;
56629;SDS011;42502;40.732;-74.254;2023-06-05T10:36:52;3.70;;;0.30;;
56629;SDS011;42502;40.732;-74.254;2023-06-05T10:39:08;1.50;;;0.25;;
56629;SDS011;42502;40.732;-74.254;2023-06-05T10:41:10;2.53;;;0.30;;
56629;SDS011;42502;40.732;-74.254;2023-06-05T10:45:33;2.05;;;0.30;;
56629;SDS011;42502;40.732;-74.254;2023-06-05T10:49:36;0.50;;;0.30;;
56629;SDS011;42502;40.732;-74.254;2023-06-05T10:51:37;9.60;;;0.38;;
56629;SDS011;42502;40.732;-74.254;2023-06-05T10:53:44;0.65;;;0.30;;
56629;SDS011;42502;40.732;-74.254;2023-06-05T10:55:47;0.57;;;0.22;;
56629;SDS011;42502;40.732;-74.254;2023-06-05T11:00:07;0.20;;;0.20;;
56629;SDS011;42502;40.732;-74.254;2023-06-05T11:04:16;0.57;;;0.22;;
56629;SDS011;42502;40.732;-74.254;2023-06-05T11:06:17;3.17;;;0.32;;
56629;SDS011;42502;40.732;-74.254;2023-06-05T11:08:18;2.05;;;0.28;;
56629;SDS011;42502;40.732;-74.254;2023-06-05T11:10:21;1.48;;;0.30;;
56629;SDS011;42502;40.732;-74.254;2023-06-05T11:12:22;1.65;;;0.20;;
56629;SDS011;42502;40.732;-74.254;2023-06-05T11:14:24;2.08;;;0.32;;
56629;SDS011;42502;40.732;-74.254;2023-06-05T11:16:32;2.08;;;0.30;;
56629;SDS011;42502;40.732;-74.254;2023-06-05T11:18:38;0.45;;;0.30;;
56629;SDS011;42502;40.732;-74.254;2023-06-05T11:28:36;0.60;;;0.38;;
56629;SDS011;42502;40.732;-74.254;2023-06-05T11:29:50;2.60;;;0.30;;
56629;SDS011;42502;40.732;-74.254;2023-06-05T11:31:53;0.90;;;0.28;;
56629;SDS011;42502;40.732;-74.254;2023-06-05T11:33:54;1.30;;;0.30;;
56629;SDS011;42502;40.732;-74.254;2023-06-05T11:35:59;1.17;;;0.30;;
56629;SDS011;42502;40.732;-74.254;2023-06-05T11:38:10;0.60;;;0.40;;
56629;SDS011;42502;40.732;-74.254;2023-06-05T11:40:18;0.65;;;0.30;;
56629;SDS011;42502;40.732;-74.254;2023-06-05T11:42:24;1.95;;;0.30;;
56629;SDS011;42502;40.732;-74.254;2023-06-05T11:44:32;0.55;;;0.30;;
56629;SDS011;42502;40.732;-74.254;2023-06-05T11:46:36;3.33;;;0.38;;
56629;SDS011;42502;40.732;-74.254;2023-06-05T11:48:44;2.40;;;0.57;;
56629;SDS011;42502;40.732;-74.254;2023-06-05T11:53:05;2.42;;;0.40;;
56629;SDS011;42502;40.732;-74.254;2023-06-05T11:57:19;1.23;;;0.30;;
56629;SDS011;42502;40.732;-74.254;2023-06-05T11:59:27;1.33;;;0.40;;
56629;SDS011;42502;40.732;-74.254;2023-06-05T12:01:28;1.30;;;0.40;;
56629;SDS011;42502;40.732;-74.254;2023-06-05T12:03:31;2.10;;;0.32;;
56629;SDS011;42502;40.732;-74.254;2023-06-05T12:05:36;1.23;;;0.30;;
56629;SDS011;42502;40.732;-74.254;2023-06-05T12:07:37;2.05;;;0.40;;
56629;SDS011;42502;40.732;-74.254;2023-06-05T12:09:39;2.65;;;0.45;;
56629;SDS011;42502;40.732;-74.254;2023-06-05T12:11:50;7.53;;;0.55;;
56629;SDS011;42502;40.732;-74.254;2023-06-05T12:13:52;9.52;;;0.70;;
56629;SDS011;42502;40.732;-74.254;2023-06-05T12:15:58;7.90;;;0.70;;
56629;SDS011;42502;40.732;-74.254;2023-06-05T12:18:00;8.20;;;0.60;;
56629;SDS011;42502;40.732;-74.254;2023-06-05T12:20:01;4.90;;;0.50;;
56629;SDS011;42502;40.732;-74.254;2023-06-05T12:22:05;13.40;;;0.45;;
56629;SDS011;42502;40.732;-74.254;2023-06-05T12:24:07;7.75;;;0.60;;
56629;SDS011;42502;40.732;-74.254;2023-06-05T12:26:09;8.48;;;0.63;;
56629;SDS011;42502;40.732;-74.254;2023-06-05T12:28:19;6.10;;;0.50;;
56629;SDS011;42502;40.732;-74.254;2023-06-05T12:30:22;3.30;;;0.43;;
56629;SDS011;42502;40.732;-74.254;2023-06-05T12:32:23;2.95;;;0.50;;